Where is Templo de Diana in Portugal?

Templo de Diana is situated in the region Evora in Portugal!

Search the name of a city:

Temple of Amenhotep II, Templo de las Grandes Mesas, Templeton, Temporales, Templeman

Here you will find the location of Templo de Diana on a map.
To see how it currently looks like outside, below are some pictures of the area from online web cameras.
You can also find the distance to the main cities in the region and to cities in the rest of Portugal.

All places in the world called .

new

Where is Templo de Diana on the map?


Webcams near Templo de Diana

Comporta: Distrito de - Praia do Carvalhal°.


Comporta: Distrito de - Praia do Carvalhal° - Day time
Current
Comporta: Distrito de - Praia do Carvalhal° - Current

Vasco Carão > South: Garrocheira, Benavente - Airport.


Vasco Carão > South: Garrocheira, Benavente - Airport - Day time
Current
Vasco Carão > South: Garrocheira, Benavente - Airport - Current

Benavente > North-East: AIrport, METAR: BENAV 180005Z 36004KT 17/14 Q1015.


Benavente > North-East: AIrport, METAR: BENAV 180005Z 36004KT 17/14 Q1015 - Day time
Current
Benavente > North-East: AIrport, METAR: BENAV 180005Z 36004KT 17/14 Q1015 - Current

Webcams provided by webcams.travel

Distances

Where is Templo de Diana relative to other places?

Top 10 cities in Evora and distance from Templo de Diana.

City#Populationkmmiles
Évora14585121
Montemor-o-Novo2128542717
Vendas Novas3112485031
Estremoz493494226
Reguengos de Monsaraz572173723
Redondo658453220
Vila Viçosa754844830
Borba845864729
Adaval9-2616
Agua d' Alte10-3220

Top 10 cities in Portugal and distance from Templo de Diana.

City # Populationkmmiles
Lisbon151779810867
Porto2249630293182
Amadora317885611773
Braga4121393335208
Setúbal51171098754
Coimbra6106580187116
Queluz710339811974
Funchal8980411046650
Vila Nova de Gaia970810291181
Loures106623011370

Alerts and advice Portugal

Advice and information about traveling and security in Portugal.

With a travel advise, tourists can be informed about security risks during traveling or vacation in a foreign country. Be informed about the risks of kidnapping, armed robbery, bombings, natural disasters or war. Know which areas are unsafe in Portugalo. Be vigilant, or avoid certain areas when on vacation in Portugal.

Alerts and advice



Travel information Portugal

Information on travel documents, visa applications and the cost of a visa.
Contact information of embassies in Portugal.
Different types of travel insurance.

Travel information